Time;durP1;ratioP1;P1;durP2;ratioP2;P2;SDS_P1;SDS_P2;PMS_P1;PMS_P2;Temp;Humidity;BMP_temperature;BMP_pressure;BME280_temperature;BME280_humidity;BME280_pressure;Samples;Min_cycle;Max_cycle;Signal;HPM_P1;HPM_P2
2023/06/24 00:01:17;;;;;;;;;;;;;;;;;;5033196;28;19962;-66
2023/06/24 00:03:46;;;;;;;;;;;;;;;;;;5033171;28;19955;-64
2023/06/24 00:06:18;;;;;;;;;;;;;;;;;;5033406;28;19983;-65
2023/06/24 00:08:44;;;;;;;;;;;;;;;;;;5032108;28;19994;-66
2023/06/24 00:11:10;;;;;;;;;;;;;;;;;;5033082;28;19955;-64
2023/06/24 00:13:37;;;;;;;;;;;;;;;;;;5031818;28;19966;-64
2023/06/24 00:16:03;;;;;;;;;;;;;;;;;;5033315;28;19978;-66
2023/06/24 00:18:29;;;;;;;;;;;;;;;;;;5033026;28;19998;-66
2023/06/24 00:20:55;;;;;;;;;;;;;;;;;;5035315;28;20403;-64
2023/06/24 00:23:24;;;;;;;;;;;;;;;;;;5036824;28;19962;-66
2023/06/24 00:25:50;;;;;;;;;;;;;;;;;;5035182;28;20028;-64
2023/06/24 00:28:16;;;;;;;;;;;;;;;;;;5036460;28;19959;-64
2023/06/24 00:30:42;;;;;;;;;;;;;;;;;;5036376;28;19955;-65
2023/06/24 00:33:10;;;;;;;;;;;;;;;;;;5036647;28;19955;-64
2023/06/24 00:35:37;;;;;;;;;;;;;;;;;;5036479;28;19981;-65
2023/06/24 00:38:03;;;;;;;;;;;;;;;;;;5036263;28;20005;-64
2023/06/24 00:40:29;;;;;;;;;;;;;;;;;;5036251;28;20049;-65
2023/06/24 00:42:55;;;;;;;;;;;;;;;;;;5036301;28;20451;-64
2023/06/24 00:45:21;;;;;;;;;;;;;;;;;;5036090;28;19994;-65
2023/06/24 00:47:46;;;;;;;;;;;;;;;;;;5036400;28;19959;-66
2023/06/24 00:50:12;;;;;;;;;;;;;;;;;;5036084;28;19955;-64
2023/06/24 00:52:42;;;;;;;;;;;;;;;;;;5036340;28;20009;-65
2023/06/24 00:55:08;;;;;;;;;;;;;;;;;;5036221;28;19959;-64
2023/06/24 00:57:34;;;;;;;;;;;;;;;;;;5035914;28;19956;-64
2023/06/24 00:59:59;;;;;;;;;;;;;;;;;;5036134;28;19954;-66
2023/06/24 01:02:27;;;;;;;;;;;;;;;;;;5036092;28;19954;-64
2023/06/24 01:04:53;;;;;;;;;;;;;;;;;;5036224;28;19973;-65
2023/06/24 01:07:19;;;;;;;;;;;;;;;;;;5035729;28;20324;-64
2023/06/24 01:09:45;;;;;;;;;;;;;;;;;;5036495;28;19961;-65
2023/06/24 01:12:11;;;;;;;;;;;;;;;;;;5035673;28;20327;-64
2023/06/24 01:14:37;;;;;;;;;;;;;;;;;;5036168;28;19963;-66
2023/06/24 01:17:03;;;;;;;;;;;;;;;;;;5035562;28;19954;-66
2023/06/24 01:19:28;;;;;;;;;;;;;;;;;;5035815;28;19981;-67
2023/06/24 01:21:54;;;;;;;;;;;;;;;;;;5035758;28;19993;-65
2023/06/24 01:24:20;;;;;;;;;;;;;;;;;;5035352;28;20045;-64
2023/06/24 01:26:46;;;;;;;;;;;;;;;;;;5035904;28;19955;-65
2023/06/24 01:29:13;;;;;;;;;;;;;;;;;;5035262;28;20122;-65
2023/06/24 01:31:39;;;;;;;;;;;;;;;;;;5035179;28;20419;-65
2023/06/24 01:34:06;;;;;;;;;;;;;;;;;;5035184;28;19972;-64
2023/06/24 01:36:32;;;;;;;;;;;;;;;;;;5035473;28;19955;-66
2023/06/24 01:38:58;;;;;;;;;;;;;;;;;;5035112;28;20301;-64
2023/06/24 01:41:24;;;;;;;;;;;;;;;;;;5035117;28;19982;-64
2023/06/24 01:43:49;;;;;;;;;;;;;;;;;;5034661;28;20375;-65
2023/06/24 01:46:15;;;;;;;;;;;;;;;;;;5034937;28;19975;-65
2023/06/24 01:48:41;;;;;;;;;;;;;;;;;;5035206;28;19987;-65
2023/06/24 01:51:07;;;;;;;;;;;;;;;;;;5034877;28;19961;-66
2023/06/24 01:53:33;;;;;;;;;;;;;;;;;;5035089;28;20323;-64
2023/06/24 01:55:59;;;;;;;;;;;;;;;;;;5035091;28;20048;-65
2023/06/24 01:58:25;;;;;;;;;;;;;;;;;;5034770;28;20386;-65
2023/06/24 02:00:51;;;;;;;;;;;;;;;;;;5034724;28;19956;-66
2023/06/24 02:03:17;;;;;;;;;;;;;;;;;;5034936;28;19994;-66
2023/06/24 02:05:43;;;;;;;;;;;;;;;;;;5034522;28;20023;-65
2023/06/24 02:08:09;;;;;;;;;;;;;;;;;;5034592;28;19967;-65
2023/06/24 02:10:36;;;;;;;;;;;;;;;;;;5035033;28;20038;-64
2023/06/24 02:13:02;;;;;;;;;;;;;;;;;;5032997;28;19959;-65
2023/06/24 02:15:28;;;;;;;;;;;;;;;;;;5034460;28;19961;-64
2023/06/24 02:17:56;;;;;;;;;;;;;;;;;;5034710;28;19954;-66
2023/06/24 02:20:27;;;;;;;;;;;;;;;;;;5035135;28;19959;-65
2023/06/24 02:22:52;;;;;;;;;;;;;;;;;;5034648;28;19958;-64
2023/06/24 02:25:18;;;;;;;;;;;;;;;;;;5034795;28;20431;-64
2023/06/24 02:27:44;;;;;;;;;;;;;;;;;;5034275;28;19955;-66
2023/06/24 02:30:10;;;;;;;;;;;;;;;;;;5034467;28;20037;-65
2023/06/24 02:32:38;;;;;;;;;;;;;;;;;;5034428;28;19973;-65
2023/06/24 02:35:04;;;;;;;;;;;;;;;;;;5033975;28;20057;-64
2023/06/24 02:37:30;;;;;;;;;;;;;;;;;;5034087;28;19955;-65
2023/06/24 02:39:56;;;;;;;;;;;;;;;;;;5034331;28;19962;-65
2023/06/24 02:42:21;;;;;;;;;;;;;;;;;;5033267;28;19991;-64
2023/06/24 02:44:47;;;;;;;;;;;;;;;;;;5034068;28;19974;-64
2023/06/24 02:47:13;;;;;;;;;;;;;;;;;;5033975;28;19955;-65
2023/06/24 02:49:39;;;;;;;;;;;;;;;;;;5034164;28;20486;-65
2023/06/24 02:52:05;;;;;;;;;;;;;;;;;;5033875;28;19969;-65
2023/06/24 02:54:31;;;;;;;;;;;;;;;;;;5033839;28;20041;-66
2023/06/24 02:56:57;;;;;;;;;;;;;;;;;;5034387;28;20395;-64
2023/06/24 02:59:23;;;;;;;;;;;;;;;;;;5034076;28;19959;-64
2023/06/24 03:01:49;;;;;;;;;;;;;;;;;;5033790;28;20069;-66
2023/06/24 03:04:15;;;;;;;;;;;;;;;;;;5033658;28;19962;-64
2023/06/24 03:06:41;;;;;;;;;;;;;;;;;;5033740;28;19955;-66
2023/06/24 03:09:07;;;;;;;;;;;;;;;;;;5034262;28;20000;-66
2023/06/24 03:11:33;;;;;;;;;;;;;;;;;;5033932;28;19978;-65
2023/06/24 03:13:59;;;;;;;;;;;;;;;;;;5033618;28;20406;-64
2023/06/24 03:16:25;;;;;;;;;;;;;;;;;;5033651;28;19956;-65
2023/06/24 03:18:51;;;;;;;;;;;;;;;;;;5034390;28;20396;-64
2023/06/24 03:21:16;;;;;;;;;;;;;;;;;;5033535;28;19955;-64
2023/06/24 03:23:43;;;;;;;;;;;;;;;;;;5034073;28;20486;-64
2023/06/24 03:26:09;;;;;;;;;;;;;;;;;;5033710;28;19985;-65
2023/06/24 03:28:34;;;;;;;;;;;;;;;;;;5033478;28;19955;-64
2023/06/24 03:31:00;;;;;;;;;;;;;;;;;;5033785;28;19955;-64
2023/06/24 03:33:27;;;;;;;;;;;;;;;;;;5033485;28;19976;-65
2023/06/24 03:35:53;;;;;;;;;;;;;;;;;;5033597;28;19986;-64
2023/06/24 03:38:19;;;;;;;;;;;;;;;;;;5033383;28;19959;-64
2023/06/24 03:40:45;;;;;;;;;;;;;;;;;;5033658;28;19960;-66
2023/06/24 03:43:11;;;;;;;;;;;;;;;;;;5033457;28;20497;-65
2023/06/24 03:45:37;;;;;;;;;;;;;;;;;;5033527;28;20031;-65
2023/06/24 03:48:03;;;;;;;;;;;;;;;;;;5033922;28;19979;-64
2023/06/24 03:50:29;;;;;;;;;;;;;;;;;;5033237;28;20446;-65
2023/06/24 03:52:55;;;;;;;;;;;;;;;;;;5033279;28;19999;-65
2023/06/24 03:55:20;;;;;;;;;;;;;;;;;;5036144;28;20409;-65
2023/06/24 03:57:46;;;;;;;;;;;;;;;;;;5037345;28;19956;-66
2023/06/24 04:00:15;;;;;;;;;;;;;;;;;;5036961;28;20439;-64
2023/06/24 04:02:41;;;;;;;;;;;;;;;;;;5037222;28;19955;-64
2023/06/24 04:05:07;;;;;;;;;;;;;;;;;;5036820;28;19979;-65
2023/06/24 04:07:35;;;;;;;;;;;;;;;;;;5036851;28;19962;-63
2023/06/24 04:10:02;;;;;;;;;;;;;;;;;;5037586;28;20296;-65
2023/06/24 04:12:28;;;;;;;;;;;;;;;;;;5035320;28;19965;-63
2023/06/24 04:14:54;;;;;;;;;;;;;;;;;;5036716;28;20041;-64
2023/06/24 04:17:19;;;;;;;;;;;;;;;;;;5037229;28;20389;-64
2023/06/24 04:19:45;;;;;;;;;;;;;;;;;;5036878;28;19955;-65
2023/06/24 04:22:11;;;;;;;;;;;;;;;;;;5036899;28;19954;-65
2023/06/24 04:24:37;;;;;;;;;;;;;;;;;;5036466;28;20073;-66
2023/06/24 04:27:03;;;;;;;;;;;;;;;;;;5037048;28;20408;-65
2023/06/24 04:29:29;;;;;;;;;;;;;;;;;;5036728;28;19959;-64
2023/06/24 04:31:55;;;;;;;;;;;;;;;;;;5036400;28;20331;-65
2023/06/24 04:34:21;;;;;;;;;;;;;;;;;;5036604;28;19976;-65
2023/06/24 04:36:47;;;;;;;;;;;;;;;;;;5036290;28;20005;-64
2023/06/24 04:39:13;;;;;;;;;;;;;;;;;;5036261;28;19955;-64
2023/06/24 04:41:39;;;;;;;;;;;;;;;;;;5034703;28;20452;-64
2023/06/24 04:44:05;;;;;;;;;;;;;;;;;;5036122;28;19968;-63
2023/06/24 04:46:32;;;;;;;;;;;;;;;;;;5036346;28;19975;-64
2023/06/24 04:48:58;;;;;;;;;;;;;;;;;;5036127;28;19960;-65
2023/06/24 04:51:24;;;;;;;;;;;;;;;;;;5036384;28;20007;-66
2023/06/24 04:53:50;;;;;;;;;;;;;;;;;;5035985;28;20435;-65
2023/06/24 04:56:16;;;;;;;;;;;;;;;;;;5036777;28;19985;-66
2023/06/24 04:58:42;;;;;;;;;;;;;;;;;;5035934;28;19956;-64
2023/06/24 05:01:08;;;;;;;;;;;;;;;;;;5036417;28;20344;-64
2023/06/24 05:03:33;;;;;;;;;;;;;;;;;;5036093;28;20008;-64
2023/06/24 05:05:59;;;;;;;;;;;;;;;;;;5034899;28;19975;-65
2023/06/24 05:08:25;;;;;;;;;;;;;;;;;;5035736;28;20002;-64
2023/06/24 05:10:51;;;;;;;;;;;;;;;;;;5036743;28;20383;-65
2023/06/24 05:13:17;;;;;;;;;;;;;;;;;;5035903;28;20037;-64
2023/06/24 05:15:43;;;;;;;;;;;;;;;;;;5035586;28;20315;-65
2023/06/24 05:18:09;;;;;;;;;;;;;;;;;;5035604;28;19958;-64
2023/06/24 05:20:35;;;;;;;;;;;;;;;;;;5035561;28;20372;-63
2023/06/24 05:23:00;;;;;;;;;;;;;;;;;;5035455;28;20046;-65
2023/06/24 05:25:26;;;;;;;;;;;;;;;;;;5035912;28;20325;-66
2023/06/24 05:27:52;;;;;;;;;;;;;;;;;;5035642;28;19958;-65
2023/06/24 05:30:18;;;;;;;;;;;;;;;;;;5035364;28;19958;-64
2023/06/24 05:32:44;;;;;;;;;;;;;;;;;;5035598;28;19956;-65
2023/06/24 05:35:10;;;;;;;;;;;;;;;;;;5035202;28;20060;-65
2023/06/24 05:37:36;;;;;;;;;;;;;;;;;;5035412;28;19959;-64
2023/06/24 05:40:02;;;;;;;;;;;;;;;;;;5035466;28;19955;-66
2023/06/24 05:42:28;;;;;;;;;;;;;;;;;;5033638;28;20002;-66
2023/06/24 05:44:54;;;;;;;;;;;;;;;;;;5035277;28;19975;-64
2023/06/24 05:47:20;;;;;;;;;;;;;;;;;;5034958;28;19955;-66
2023/06/24 05:49:46;;;;;;;;;;;;;;;;;;5035203;28;19955;-66
2023/06/24 05:52:11;;;;;;;;;;;;;;;;;;5034920;28;20049;-65
2023/06/24 05:54:37;;;;;;;;;;;;;;;;;;5034852;28;19963;-66
2023/06/24 05:57:06;;;;;;;;;;;;;;;;;;5035101;28;19959;-64
2023/06/24 05:59:31;;;;;;;;;;;;;;;;;;5034977;28;20013;-66
2023/06/24 06:01:57;;;;;;;;;;;;;;;;;;5034679;28;20369;-63
2023/06/24 06:04:23;;;;;;;;;;;;;;;;;;5034879;28;19953;-63
2023/06/24 06:06:49;;;;;;;;;;;;;;;;;;5034645;28;20006;-63
2023/06/24 06:09:15;;;;;;;;;;;;;;;;;;5035354;28;19968;-65
2023/06/24 06:11:41;;;;;;;;;;;;;;;;;;5034535;28;20344;-65
2023/06/24 06:14:07;;;;;;;;;;;;;;;;;;5034473;28;20042;-66
2023/06/24 06:16:33;;;;;;;;;;;;;;;;;;5034432;28;20493;-65
2023/06/24 06:18:59;;;;;;;;;;;;;;;;;;5034418;28;20002;-66
2023/06/24 06:21:25;;;;;;;;;;;;;;;;;;5034385;28;19986;-65
2023/06/24 06:23:51;;;;;;;;;;;;;;;;;;5034402;28;19960;-66
2023/06/24 06:26:17;;;;;;;;;;;;;;;;;;5034248;28;19975;-66
2023/06/24 06:28:43;;;;;;;;;;;;;;;;;;5034317;28;20477;-66
2023/06/24 06:31:09;;;;;;;;;;;;;;;;;;5034232;28;20001;-67
2023/06/24 06:33:35;;;;;;;;;;;;;;;;;;5034109;28;20303;-65
2023/06/24 06:36:01;;;;;;;;;;;;;;;;;;5034014;28;19969;-66
2023/06/24 06:38:27;;;;;;;;;;;;;;;;;;5034356;28;19961;-63
2023/06/24 06:40:53;;;;;;;;;;;;;;;;;;5034067;28;19959;-63
2023/06/24 06:43:19;;;;;;;;;;;;;;;;;;5033569;28;20349;-63
2023/06/24 06:45:44;;;;;;;;;;;;;;;;;;5033923;28;19984;-64
2023/06/24 06:48:10;;;;;;;;;;;;;;;;;;5033988;28;20366;-62
2023/06/24 06:50:38;;;;;;;;;;;;;;;;;;5033155;28;21430;-65
2023/06/24 06:53:04;;;;;;;;;;;;;;;;;;5034462;28;19955;-63
2023/06/24 06:55:30;;;;;;;;;;;;;;;;;;5033856;28;19962;-63
2023/06/24 06:57:56;;;;;;;;;;;;;;;;;;5033814;28;20017;-64
2023/06/24 07:00:23;;;;;;;;;;;;;;;;;;5034364;28;19953;-63
2023/06/24 07:02:49;;;;;;;;;;;;;;;;;;5034050;28;19959;-63
2023/06/24 07:05:14;;;;;;;;;;;;;;;;;;5033675;28;20023;-63
2023/06/24 07:07:41;;;;;;;;;;;;;;;;;;5034206;28;20411;-63
2023/06/24 07:10:07;;;;;;;;;;;;;;;;;;5034185;28;19964;-63
2023/06/24 07:12:33;;;;;;;;;;;;;;;;;;5033878;28;19957;-63
2023/06/24 07:14:59;;;;;;;;;;;;;;;;;;5033638;28;19959;-65
2023/06/24 07:17:25;;;;;;;;;;;;;;;;;;5033879;28;19953;-63
2023/06/24 07:19:51;;;;;;;;;;;;;;;;;;5033579;28;19962;-64
2023/06/24 07:22:16;;;;;;;;;;;;;;;;;;5033868;28;19962;-65
2023/06/24 07:24:42;;;;;;;;;;;;;;;;;;5033761;28;20029;-64
2023/06/24 07:27:08;;;;;;;;;;;;;;;;;;5033532;28;19997;-65
2023/06/24 07:29:34;;;;;;;;;;;;;;;;;;5035258;28;19954;-64
2023/06/24 07:32:00;;;;;;;;;;;;;;;;;;5037547;28;20431;-64
2023/06/24 07:34:26;;;;;;;;;;;;;;;;;;5037491;28;19976;-63
2023/06/24 07:36:52;;;;;;;;;;;;;;;;;;5037716;28;19955;-65
2023/06/24 07:39:19;;;;;;;;;;;;;;;;;;5037693;28;20050;-64
2023/06/24 07:41:45;;;;;;;;;;;;;;;;;;5035659;28;19959;-64
2023/06/24 07:44:11;;;;;;;;;;;;;;;;;;5037904;28;20470;-63
2023/06/24 07:46:37;;;;;;;;;;;;;;;;;;5037204;28;20429;-64
2023/06/24 07:49:03;;;;;;;;;;;;;;;;;;5037498;28;20092;-64
2023/06/24 07:51:29;;;;;;;;;;;;;;;;;;5037116;28;19968;-63
2023/06/24 07:53:55;;;;;;;;;;;;;;;;;;5037149;28;19955;-63
2023/06/24 07:56:21;;;;;;;;;;;;;;;;;;5037384;28;19954;-64
2023/06/24 07:58:47;;;;;;;;;;;;;;;;;;5037113;28;19955;-63
2023/06/24 08:01:13;;;;;;;;;;;;;;;;;;5037031;28;20001;-64
2023/06/24 08:03:38;;;;;;;;;;;;;;;;;;5036927;28;19960;-64
2023/06/24 08:06:04;;;;;;;;;;;;;;;;;;5036890;28;20324;-64
2023/06/24 08:08:30;;;;;;;;;;;;;;;;;;5036904;28;19988;-63
2023/06/24 08:10:56;;;;;;;;;;;;;;;;;;5037636;28;19955;-65
2023/06/24 08:13:22;;;;;;;;;;;;;;;;;;5036778;28;19955;-65
2023/06/24 08:15:48;;;;;;;;;;;;;;;;;;5037044;28;19999;-64
2023/06/24 08:18:14;;;;;;;;;;;;;;;;;;5036717;28;19961;-64
2023/06/24 08:20:40;;;;;;;;;;;;;;;;;;5036918;28;19953;-63
2023/06/24 08:23:06;;;;;;;;;;;;;;;;;;5036615;28;19962;-63
2023/06/24 08:25:32;;;;;;;;;;;;;;;;;;5036552;28;20435;-64
2023/06/24 08:27:57;;;;;;;;;;;;;;;;;;5036834;28;19955;-64
2023/06/24 08:30:23;;;;;;;;;;;;;;;;;;5036500;28;19952;-64
2023/06/24 08:32:49;;;;;;;;;;;;;;;;;;5034945;28;20489;-64
2023/06/24 08:35:15;;;;;;;;;;;;;;;;;;5036311;28;20018;-63
2023/06/24 08:37:41;;;;;;;;;;;;;;;;;;5036617;28;19990;-64
2023/06/24 08:40:07;;;;;;;;;;;;;;;;;;5035895;28;19955;-64
2023/06/24 08:42:33;;;;;;;;;;;;;;;;;;5035444;28;20083;-64
2023/06/24 08:44:59;;;;;;;;;;;;;;;;;;5036365;28;19983;-66
2023/06/24 08:47:25;;;;;;;;;;;;;;;;;;5036170;28;20400;-67
2023/06/24 08:49:51;;;;;;;;;;;;;;;;;;5036135;28;19957;-65
2023/06/24 08:52:16;;;;;;;;;;;;;;;;;;5036649;28;20317;-65
2023/06/24 08:54:43;;;;;;;;;;;;;;;;;;5036019;28;19955;-64
2023/06/24 08:57:14;;;;;;;;;;;;;;;;;;5036176;28;19957;-64
2023/06/24 08:59:40;;;;;;;;;;;;;;;;;;5035931;28;20052;-64
2023/06/24 09:02:06;;;;;;;;;;;;;;;;;;5036117;28;19958;-63
2023/06/24 09:04:31;;;;;;;;;;;;;;;;;;5036001;28;20008;-65
2023/06/24 09:06:57;;;;;;;;;;;;;;;;;;5036341;28;19953;-64
2023/06/24 09:09:28;;;;;;;;;;;;;;;;;;5035877;28;19953;-63
2023/06/24 09:11:54;;;;;;;;;;;;;;;;;;5036365;28;19970;-68
2023/06/24 09:14:20;;;;;;;;;;;;;;;;;;5034374;28;20351;-69
2023/06/24 09:16:45;;;;;;;;;;;;;;;;;;5035729;28;19955;-66
2023/06/24 09:19:11;;;;;;;;;;;;;;;;;;5044468;28;20002;-69
2023/06/24 09:21:38;;;;;;;;;;;;;;;;;;5046980;28;19958;-67
2023/06/24 09:24:04;;;;;;;;;;;;;;;;;;5035760;28;20324;-69
2023/06/24 09:26:30;;;;;;;;;;;;;;;;;;5035558;28;19975;-66
2023/06/24 09:28:56;;;;;;;;;;;;;;;;;;5034548;28;20518;-65
2023/06/24 09:31:23;;;;;;;;;;;;;;;;;;5035188;28;19960;-70
2023/06/24 09:33:49;;;;;;;;;;;;;;;;;;5035689;28;19954;-69
2023/06/24 09:36:14;;;;;;;;;;;;;;;;;;5047666;28;19969;-69
2023/06/24 09:38:41;;;;;;;;;;;;;;;;;;5055143;28;19990;-68
2023/06/24 09:41:06;;;;;;;;;;;;;;;;;;5054972;28;19962;-69
2023/06/24 09:43:32;;;;;;;;;;;;;;;;;;5054547;28;20471;-67
2023/06/24 09:45:58;;;;;;;;;;;;;;;;;;5054774;28;19974;-65
2023/06/24 09:48:24;;;;;;;;;;;;;;;;;;5054894;28;20004;-65
2023/06/24 09:50:50;;;;;;;;;;;;;;;;;;5055221;28;20395;-65
2023/06/24 09:53:16;;;;;;;;;;;;;;;;;;5054605;28;19956;-67
2023/06/24 09:55:43;;;;;;;;;;;;;;;;;;5054633;28;20416;-66
2023/06/24 09:58:09;;;;;;;;;;;;;;;;;;5054654;28;19967;-66
2023/06/24 10:00:35;;;;;;;;;;;;;;;;;;5055170;28;19955;-65
2023/06/24 10:03:01;;;;;;;;;;;;;;;;;;5054564;28;19953;-68
2023/06/24 10:05:27;;;;;;;;;;;;;;;;;;5053621;28;20063;-68
2023/06/24 10:07:53;;;;;;;;;;;;;;;;;;5055306;28;20008;-65
2023/06/24 10:10:18;;;;;;;;;;;;;;;;;;5055061;28;19955;-66
2023/06/24 10:12:44;;;;;;;;;;;;;;;;;;5054462;28;20439;-65
2023/06/24 10:15:11;;;;;;;;;;;;;;;;;;5054632;28;19956;-65
2023/06/24 10:17:37;;;;;;;;;;;;;;;;;;5054358;28;19956;-68
2023/06/24 10:20:03;;;;;;;;;;;;;;;;;;5054313;28;20379;-67
2023/06/24 10:22:29;;;;;;;;;;;;;;;;;;5054487;28;19970;-67
2023/06/24 10:24:56;;;;;;;;;;;;;;;;;;5054392;28;19976;-65
2023/06/24 10:27:22;;;;;;;;;;;;;;;;;;5054437;28;19991;-64
2023/06/24 10:29:48;;;;;;;;;;;;;;;;;;5054387;28;19979;-65
2023/06/24 10:32:14;;;;;;;;;;;;;;;;;;5054082;28;20002;-68
2023/06/24 10:34:41;;;;;;;;;;;;;;;;;;5054143;28;20020;-68
2023/06/24 10:37:07;;;;;;;;;;;;;;;;;;5054063;28;19959;-65
2023/06/24 10:39:32;;;;;;;;;;;;;;;;;;5054074;28;20340;-65
2023/06/24 10:41:58;;;;;;;;;;;;;;;;;;5053698;28;20025;-64
2023/06/24 10:44:24;;;;;;;;;;;;;;;;;;5054536;28;20306;-64
2023/06/24 10:46:50;;;;;;;;;;;;;;;;;;5053720;28;19978;-66
2023/06/24 10:49:16;;;;;;;;;;;;;;;;;;5052432;28;20607;-65
2023/06/24 10:51:42;;;;;;;;;;;;;;;;;;5050378;28;20046;-66
2023/06/24 10:54:08;;;;;;;;;;;;;;;;;;5052227;28;20007;-64
2023/06/24 10:56:34;;;;;;;;;;;;;;;;;;5052746;28;19959;-65
2023/06/24 10:59:00;;;;;;;;;;;;;;;;;;5053206;28;19955;-63
2023/06/24 11:01:26;;;;;;;;;;;;;;;;;;5053313;28;19962;-65
2023/06/24 11:03:52;;;;;;;;;;;;;;;;;;5052783;28;19983;-65
2023/06/24 11:06:17;;;;;;;;;;;;;;;;;;5053868;28;19983;-66
2023/06/24 11:08:43;;;;;;;;;;;;;;;;;;5053857;28;20027;-66
2023/06/24 11:11:09;;;;;;;;;;;;;;;;;;5054126;28;19994;-66
2023/06/24 11:13:35;;;;;;;;;;;;;;;;;;5053453;28;20442;-66
2023/06/24 11:16:01;;;;;;;;;;;;;;;;;;5053713;28;19962;-65
2023/06/24 11:18:27;;;;;;;;;;;;;;;;;;5053780;28;20325;-66
2023/06/24 11:20:53;;;;;;;;;;;;;;;;;;5054085;28;19960;-66
2023/06/24 11:23:19;;;;;;;;;;;;;;;;;;5053367;28;20405;-63
2023/06/24 11:25:44;;;;;;;;;;;;;;;;;;5053324;28;19978;-64
2023/06/24 11:28:10;;;;;;;;;;;;;;;;;;5053609;28;20033;-64
2023/06/24 11:30:36;;;;;;;;;;;;;;;;;;5053355;28;20000;-66
2023/06/24 11:33:02;;;;;;;;;;;;;;;;;;5053584;28;19956;-65
2023/06/24 11:35:29;;;;;;;;;;;;;;;;;;5053262;28;20462;-64
2023/06/24 11:37:55;;;;;;;;;;;;;;;;;;5053319;28;20420;-65
2023/06/24 11:40:22;;;;;;;;;;;;;;;;;;5053315;28;19954;-65
2023/06/24 11:42:50;;;;;;;;;;;;;;;;;;5053322;28;19990;-66
2023/06/24 11:45:16;;;;;;;;;;;;;;;;;;5053185;28;19974;-64
2023/06/24 11:47:42;;;;;;;;;;;;;;;;;;5053809;28;20421;-67
2023/06/24 11:50:08;;;;;;;;;;;;;;;;;;5053539;28;19953;-66
2023/06/24 11:52:34;;;;;;;;;;;;;;;;;;5053697;28;19961;-66
2023/06/24 11:55:00;;;;;;;;;;;;;;;;;;5053121;28;20428;-66
2023/06/24 11:57:26;;;;;;;;;;;;;;;;;;5053148;28;20331;-66
2023/06/24 11:59:52;;;;;;;;;;;;;;;;;;5053204;28;20017;-64
2023/06/24 12:02:18;;;;;;;;;;;;;;;;;;5053338;28;19960;-64
2023/06/24 12:04:44;;;;;;;;;;;;;;;;;;5052946;28;19955;-66
2023/06/24 12:07:10;;;;;;;;;;;;;;;;;;5052928;28;19966;-71
2023/06/24 12:09:36;;;;;;;;;;;;;;;;;;5053281;28;19956;-69
2023/06/24 12:12:02;;;;;;;;;;;;;;;;;;5053484;28;20021;-69
2023/06/24 12:14:27;;;;;;;;;;;;;;;;;;5053006;28;19963;-69
2023/06/24 12:16:53;;;;;;;;;;;;;;;;;;5056548;28;19978;-70
2023/06/24 12:19:21;;;;;;;;;;;;;;;;;;5056647;28;20081;-69
2023/06/24 12:21:47;;;;;;;;;;;;;;;;;;5055029;28;19960;-70
2023/06/24 12:24:13;;;;;;;;;;;;;;;;;;5056761;28;19961;-69
2023/06/24 12:26:39;;;;;;;;;;;;;;;;;;5056432;28;19984;-69
2023/06/24 12:29:05;;;;;;;;;;;;;;;;;;5056503;28;19955;-69
2023/06/24 12:31:31;;;;;;;;;;;;;;;;;;5056417;28;19956;-69
2023/06/24 12:33:57;;;;;;;;;;;;;;;;;;5057039;28;20394;-69
2023/06/24 12:36:23;;;;;;;;;;;;;;;;;;5056350;28;20012;-70
2023/06/24 12:38:49;;;;;;;;;;;;;;;;;;5056586;28;19962;-69
2023/06/24 12:41:15;;;;;;;;;;;;;;;;;;5056268;28;19987;-69
2023/06/24 12:43:41;;;;;;;;;;;;;;;;;;5055902;28;19995;-69
2023/06/24 12:46:06;;;;;;;;;;;;;;;;;;5056087;28;19982;-69
2023/06/24 12:48:32;;;;;;;;;;;;;;;;;;5056098;28;19961;-69
2023/06/24 12:50:58;;;;;;;;;;;;;;;;;;5056072;28;19960;-69
2023/06/24 12:53:24;;;;;;;;;;;;;;;;;;5056336;28;19991;-70
2023/06/24 12:55:50;;;;;;;;;;;;;;;;;;5055934;28;19962;-69
2023/06/24 12:58:16;;;;;;;;;;;;;;;;;;5055906;28;19954;-69
2023/06/24 13:00:42;;;;;;;;;;;;;;;;;;5055761;28;19998;-69
2023/06/24 13:03:08;;;;;;;;;;;;;;;;;;5055790;28;19956;-69
2023/06/24 13:05:34;;;;;;;;;;;;;;;;;;5055919;28;19982;-69
2023/06/24 13:08:00;;;;;;;;;;;;;;;;;;5055737;28;19966;-69
2023/06/24 13:10:27;;;;;;;;;;;;;;;;;;5056718;28;20416;-70
2023/06/24 13:12:53;;;;;;;;;;;;;;;;;;5054142;28;19981;-70
2023/06/24 13:15:19;;;;;;;;;;;;;;;;;;5056183;28;20005;-68
2023/06/24 13:17:45;;;;;;;;;;;;;;;;;;5055556;28;20324;-69
2023/06/24 13:20:11;;;;;;;;;;;;;;;;;;5055557;28;19955;-69
2023/06/24 13:22:36;;;;;;;;;;;;;;;;;;5053846;28;19965;-69
2023/06/24 13:25:02;;;;;;;;;;;;;;;;;;5055586;28;20343;-69
2023/06/24 13:27:28;;;;;;;;;;;;;;;;;;5054567;28;20045;-69
2023/06/24 13:29:54;;;;;;;;;;;;;;;;;;5055506;28;19955;-70
2023/06/24 13:32:20;;;;;;;;;;;;;;;;;;5053740;28;20430;-69
2023/06/24 13:34:46;;;;;;;;;;;;;;;;;;5055117;28;20034;-69
2023/06/24 13:37:12;;;;;;;;;;;;;;;;;;5055160;28;19991;-69
2023/06/24 13:39:39;;;;;;;;;;;;;;;;;;5055319;28;19955;-69
2023/06/24 13:42:05;;;;;;;;;;;;;;;;;;5053414;28;19991;-69
2023/06/24 13:44:31;;;;;;;;;;;;;;;;;;5055252;28;19961;-69
2023/06/24 13:46:56;;;;;;;;;;;;;;;;;;5054875;28;20368;-69
2023/06/24 13:49:22;;;;;;;;;;;;;;;;;;5055165;28;19993;-69
2023/06/24 13:51:48;;;;;;;;;;;;;;;;;;5054852;28;19956;-69
2023/06/24 13:54:14;;;;;;;;;;;;;;;;;;5055338;28;19956;-69
2023/06/24 13:56:40;;;;;;;;;;;;;;;;;;5054761;28;19956;-69
2023/06/24 13:59:06;;;;;;;;;;;;;;;;;;5054661;28;19961;-69
2023/06/24 14:01:32;;;;;;;;;;;;;;;;;;5054643;28;19955;-69
2023/06/24 14:03:58;;;;;;;;;;;;;;;;;;5054600;28;19955;-68
2023/06/24 14:06:24;;;;;;;;;;;;;;;;;;5054503;28;19974;-68
2023/06/24 14:08:50;;;;;;;;;;;;;;;;;;5054476;28;19959;-69
2023/06/24 14:11:16;;;;;;;;;;;;;;;;;;5055308;28;19958;-70
2023/06/24 14:13:42;;;;;;;;;;;;;;;;;;5054408;28;20014;-69
2023/06/24 14:16:07;;;;;;;;;;;;;;;;;;5054922;28;20403;-69
2023/06/24 14:18:34;;;;;;;;;;;;;;;;;;5054323;28;20062;-68
2023/06/24 14:21:00;;;;;;;;;;;;;;;;;;5054318;28;19966;-70
2023/06/24 14:23:26;;;;;;;;;;;;;;;;;;5054223;28;20330;-69
2023/06/24 14:25:52;;;;;;;;;;;;;;;;;;5054095;28;19983;-70
2023/06/24 14:28:18;;;;;;;;;;;;;;;;;;5054432;28;20065;-69
2023/06/24 14:30:45;;;;;;;;;;;;;;;;;;5054128;28;19962;-69
2023/06/24 14:33:11;;;;;;;;;;;;;;;;;;5054390;28;20443;-70
2023/06/24 14:35:37;;;;;;;;;;;;;;;;;;5054050;28;19974;-70
2023/06/24 14:38:03;;;;;;;;;;;;;;;;;;5053881;28;19956;-69
2023/06/24 14:40:29;;;;;;;;;;;;;;;;;;5053878;28;19963;-69
2023/06/24 14:42:55;;;;;;;;;;;;;;;;;;5053809;28;20044;-69
2023/06/24 14:45:21;;;;;;;;;;;;;;;;;;5053907;28;19976;-69
2023/06/24 14:47:46;;;;;;;;;;;;;;;;;;5054203;28;19954;-69
2023/06/24 14:50:12;;;;;;;;;;;;;;;;;;5053869;28;20351;-69
2023/06/24 14:52:38;;;;;;;;;;;;;;;;;;5053853;28;19956;-70
2023/06/24 14:55:04;;;;;;;;;;;;;;;;;;5053795;28;19956;-69
2023/06/24 14:57:30;;;;;;;;;;;;;;;;;;5053782;28;19965;-69
2023/06/24 14:59:56;;;;;;;;;;;;;;;;;;5054053;28;19956;-69
2023/06/24 15:02:22;;;;;;;;;;;;;;;;;;5053701;28;20001;-69
2023/06/24 15:04:48;;;;;;;;;;;;;;;;;;5054155;28;19963;-69
2023/06/24 15:07:14;;;;;;;;;;;;;;;;;;5053679;28;20093;-69
2023/06/24 15:09:39;;;;;;;;;;;;;;;;;;5053596;28;20003;-69
2023/06/24 15:12:05;;;;;;;;;;;;;;;;;;5054099;28;19955;-69
2023/06/24 15:14:31;;;;;;;;;;;;;;;;;;5053874;28;19963;-69
2023/06/24 15:16:58;;;;;;;;;;;;;;;;;;5053822;28;20009;-69
2023/06/24 15:19:24;;;;;;;;;;;;;;;;;;5053555;28;19955;-69
2023/06/24 15:21:50;;;;;;;;;;;;;;;;;;5053820;28;19958;-68
2023/06/24 15:24:16;;;;;;;;;;;;;;;;;;5053794;28;19962;-69
2023/06/24 15:26:42;;;;;;;;;;;;;;;;;;5053393;28;19975;-68
2023/06/24 15:29:07;;;;;;;;;;;;;;;;;;5054021;28;20069;-69
2023/06/24 15:31:33;;;;;;;;;;;;;;;;;;5053416;28;20005;-70
2023/06/24 15:33:59;;;;;;;;;;;;;;;;;;5053362;28;19976;-69
2023/06/24 15:36:27;;;;;;;;;;;;;;;;;;5053384;28;19956;-70
2023/06/24 15:38:54;;;;;;;;;;;;;;;;;;5053337;28;19960;-69
2023/06/24 15:41:20;;;;;;;;;;;;;;;;;;5053673;28;19959;-69
2023/06/24 15:43:46;;;;;;;;;;;;;;;;;;5052941;28;19991;-69
2023/06/24 15:46:12;;;;;;;;;;;;;;;;;;5053807;28;19976;-69
2023/06/24 15:48:38;;;;;;;;;;;;;;;;;;5053297;28;19959;-69
2023/06/24 15:51:04;;;;;;;;;;;;;;;;;;5056328;28;20461;-69
2023/06/24 15:53:29;;;;;;;;;;;;;;;;;;5057426;28;19965;-68
2023/06/24 15:55:55;;;;;;;;;;;;;;;;;;5057704;28;20001;-68
2023/06/24 15:58:21;;;;;;;;;;;;;;;;;;5057401;28;19961;-70
2023/06/24 16:00:47;;;;;;;;;;;;;;;;;;5057094;28;19954;-70
2023/06/24 16:03:13;;;;;;;;;;;;;;;;;;5057020;28;19953;-68
2023/06/24 16:05:39;;;;;;;;;;;;;;;;;;5057112;28;19982;-70
2023/06/24 16:08:05;;;;;;;;;;;;;;;;;;5057184;28;19994;-69
2023/06/24 16:10:31;;;;;;;;;;;;;;;;;;5056866;28;20336;-69
2023/06/24 16:12:57;;;;;;;;;;;;;;;;;;5055814;28;19960;-69
2023/06/24 16:15:22;;;;;;;;;;;;;;;;;;5057069;28;19956;-69
2023/06/24 16:17:48;;;;;;;;;;;;;;;;;;5056975;28;20008;-68
2023/06/24 16:20:16;;;;;;;;;;;;;;;;;;5057231;28;19963;-69
2023/06/24 16:22:42;;;;;;;;;;;;;;;;;;5056623;28;20055;-69
2023/06/24 16:25:08;;;;;;;;;;;;;;;;;;5056756;28;20033;-69
2023/06/24 16:27:34;;;;;;;;;;;;;;;;;;5056522;28;20435;-70
2023/06/24 16:30:00;;;;;;;;;;;;;;;;;;5056531;28;19963;-69
2023/06/24 16:32:26;;;;;;;;;;;;;;;;;;5056417;28;19958;-69
2023/06/24 16:34:52;;;;;;;;;;;;;;;;;;5056323;28;20443;-69
2023/06/24 16:37:18;;;;;;;;;;;;;;;;;;5056586;28;19964;-69